Time;durP1;ratioP1;P1;durP2;ratioP2;P2;SDS_P1;SDS_P2;PMS_P1;PMS_P2;Temp;Humidity;BMP_temperature;BMP_pressure;BME280_temperature;BME280_humidity;BME280_pressure;Samples;Min_cycle;Max_cycle;Signal;HPM_P1;HPM_P2
2023/08/10 00:02:55;;;;;;;33.10;25.50;;;;;;;13.40;100.00;99155.54;135611;1274;22533;-82
2023/08/10 00:05:57;;;;;;;33.60;25.70;;;;;;;13.41;100.00;99152.39;135524;1274;22909;-79
2023/08/10 00:09:00;;;;;;;38.10;25.30;;;;;;;13.43;100.00;99155.73;135475;1274;22546;-79
2023/08/10 00:12:02;;;;;;;32.50;24.60;;;;;;;13.39;100.00;99159.73;135512;1271;22535;-79
2023/08/10 00:15:05;;;;;;;36.30;25.50;;;;;;;13.35;100.00;99156.39;135547;1274;22545;-80
2023/08/10 00:18:09;;;;;;;32.70;26.10;;;;;;;13.31;100.00;99155.48;135506;1274;22578;-79
2023/08/10 00:21:12;;;;;;;29.50;24.10;;;;;;;13.26;100.00;99161.92;136122;1274;22561;-79
2023/08/10 00:24:14;;;;;;;29.30;24.80;;;;;;;13.20;100.00;99159.09;135521;1274;25229;-79
2023/08/10 00:27:16;;;;;;;35.70;28.00;;;;;;;13.17;100.00;99162.03;135458;1274;22533;-78
2023/08/10 00:30:19;;;;;;;32.80;25.70;;;;;;;13.16;100.00;99162.37;135467;1275;22570;-78
2023/08/10 00:33:22;;;;;;;34.10;26.20;;;;;;;13.14;100.00;99164.95;135545;1274;22597;-80
2023/08/10 00:36:24;;;;;;;29.10;25.40;;;;;;;13.08;100.00;99164.91;135671;1274;24305;-81
2023/08/10 00:39:26;;;;;;;31.40;25.90;;;;;;;13.03;100.00;99166.80;135587;1274;22579;-82
2023/08/10 00:42:29;;;;;;;33.20;26.90;;;;;;;13.00;100.00;99169.40;135506;1274;22533;-81
2023/08/10 00:45:32;;;;;;;34.10;26.60;;;;;;;12.99;100.00;99176.17;135648;1274;22533;-80
2023/08/10 00:48:34;;;;;;;37.60;29.40;;;;;;;12.97;100.00;99178.77;135628;1274;22534;-83
2023/08/10 00:51:37;;;;;;;38.50;28.80;;;;;;;12.95;100.00;99176.84;135613;1274;22572;-82
2023/08/10 00:54:39;;;;;;;35.10;26.30;;;;;;;12.95;100.00;99181.73;135621;1274;25318;-82
2023/08/10 00:57:41;;;;;;;34.30;26.20;;;;;;;12.93;100.00;99184.52;135652;1275;22572;-81
2023/08/10 01:00:44;;;;;;;35.00;25.90;;;;;;;12.90;100.00;99188.33;135656;1274;25325;-81
2023/08/10 01:03:47;;;;;;;34.60;25.60;;;;;;;12.88;100.00;99187.80;135546;1274;22554;-82
2023/08/10 01:06:49;;;;;;;34.60;25.00;;;;;;;12.86;100.00;99184.10;135516;1274;25908;-78
2023/08/10 01:09:54;;;;;;;33.20;24.30;;;;;;;12.85;100.00;99190.02;135431;1274;22546;-79
2023/08/10 01:12:56;;;;;;;32.50;24.40;;;;;;;12.82;100.00;99187.39;135468;1274;22561;-81
2023/08/10 01:15:59;;;;;;;32.70;25.20;;;;;;;12.83;100.00;99190.73;135611;1275;23024;-81
2023/08/10 01:19:01;;;;;;;32.20;26.20;;;;;;;12.79;100.00;99194.88;135717;1274;22541;-80
2023/08/10 01:22:04;;;;;;;46.30;31.60;;;;;;;12.75;100.00;99196.60;135644;1275;25319;-80
2023/08/10 01:25:06;;;;;;;85.30;46.10;;;;;;;12.73;100.00;99199.90;135560;1275;22560;-82
2023/08/10 01:28:09;;;;;;;60.10;38.80;;;;;;;12.73;100.00;99202.16;135589;1274;22533;-79
2023/08/10 01:31:11;;;;;;;45.60;32.70;;;;;;;12.72;100.00;99204.60;135640;1275;25921;-81
2023/08/10 01:34:14;;;;;;;39.10;29.70;;;;;;;12.70;100.00;99205.29;135626;1275;22521;-79
2023/08/10 01:37:16;;;;;;;51.40;32.70;;;;;;;12.67;100.00;99210.48;135566;1274;22537;-81
2023/08/10 01:40:18;;;;;;;62.90;35.00;;;;;;;12.66;100.00;99205.94;135609;1275;24161;-83
2023/08/10 01:43:21;;;;;;;39.90;27.70;;;;;;;12.66;100.00;99211.00;135541;1275;22658;-79
2023/08/10 01:46:23;;;;;;;39.00;26.00;;;;;;;12.64;100.00;99210.29;135424;1275;23023;-78
2023/08/10 01:49:26;;;;;;;39.00;26.00;;;;;;;12.62;100.00;99212.38;135410;1275;22542;-77
2023/08/10 01:52:28;;;;;;;32.60;23.20;;;;;;;12.60;100.00;99215.14;135472;1259;22556;-77
2023/08/10 01:55:31;;;;;;;31.90;23.30;;;;;;;12.62;100.00;99218.12;135481;1275;22525;-78
2023/08/10 01:58:33;;;;;;;32.20;21.70;;;;;;;12.67;100.00;99215.55;135423;1275;22642;-77
2023/08/10 02:01:36;;;;;;;28.70;20.30;;;;;;;12.68;100.00;99223.08;135655;1275;22540;-78
2023/08/10 02:04:38;;;;;;;21.80;18.40;;;;;;;12.66;100.00;99222.52;135765;1275;22817;-78
2023/08/10 02:07:41;;;;;;;21.80;17.10;;;;;;;12.63;100.00;99222.85;136579;1275;25009;-79
2023/08/10 02:10:43;;;;;;;22.10;17.40;;;;;;;12.64;100.00;99224.25;136771;1275;22585;-79
2023/08/10 02:13:46;;;;;;;21.50;17.40;;;;;;;12.63;100.00;99223.38;136400;1275;22944;-78
2023/08/10 02:16:48;;;;;;;19.40;15.40;;;;;;;12.60;100.00;99221.43;136104;1275;22613;-78
2023/08/10 02:19:51;;;;;;;29.80;17.50;;;;;;;12.54;100.00;99219.79;135803;1275;22540;-79
2023/08/10 02:22:53;;;;;;;24.40;17.50;;;;;;;12.49;100.00;99219.39;135657;1275;22530;-79
2023/08/10 02:25:56;;;;;;;29.00;19.00;;;;;;;12.44;100.00;99225.45;135485;1275;22540;-79
2023/08/10 02:28:58;;;;;;;25.90;17.80;;;;;;;12.39;100.00;99225.75;135629;1275;22545;-80
2023/08/10 02:32:01;;;;;;;34.40;20.70;;;;;;;12.38;100.00;99230.80;135578;1275;25928;-80
2023/08/10 02:35:04;;;;;;;36.60;22.90;;;;;;;12.37;100.00;99234.80;135588;1275;22577;-80
2023/08/10 02:38:07;;;;;;;29.50;20.30;;;;;;;12.38;100.00;99232.90;135450;1275;22557;-80
2023/08/10 02:41:09;;;;;;;24.40;17.60;;;;;;;12.42;100.00;99235.90;135502;1275;22631;-80
2023/08/10 02:44:12;;;;;;;22.60;17.40;;;;;;;12.44;100.00;99234.36;135537;1275;22646;-80
2023/08/10 02:47:15;;;;;;;21.50;16.40;;;;;;;12.48;100.00;99235.09;135585;1275;22541;-80
2023/08/10 02:50:17;;;;;;;22.40;16.10;;;;;;;12.47;100.00;99234.20;135524;1275;23006;-82
2023/08/10 02:53:20;;;;;;;27.00;17.60;;;;;;;12.50;100.00;99235.80;135543;1275;22486;-81
2023/08/10 02:56:23;;;;;;;21.40;16.00;;;;;;;12.51;100.00;99236.35;135451;1275;22544;-81
2023/08/10 02:59:26;;;;;;;24.70;18.00;;;;;;;12.55;100.00;99235.86;135427;1275;22533;-81
2023/08/10 03:02:28;;;;;;;22.50;16.30;;;;;;;12.58;100.00;99239.21;135783;1271;25947;-80
2023/08/10 03:05:31;;;;;;;30.10;19.30;;;;;;;12.63;100.00;99242.06;135335;1275;22546;-80
2023/08/10 03:08:33;;;;;;;32.30;18.20;;;;;;;12.68;100.00;99245.77;135765;1275;22533;-82
2023/08/10 03:11:38;;;;;;;24.90;17.80;;;;;;;12.69;100.00;99249.96;135951;1275;23045;-82
2023/08/10 03:14:40;;;;;;;22.70;17.40;;;;;;;12.73;100.00;99245.13;135951;1275;22646;-81
2023/08/10 03:17:43;;;;;;;31.30;18.30;;;;;;;12.77;100.00;99244.98;135954;1275;22989;-82
2023/08/10 03:20:45;;;;;;;32.60;22.40;;;;;;;12.82;100.00;99249.91;136024;1275;22672;-79
2023/08/10 03:23:48;;;;;;;38.40;18.90;;;;;;;12.89;100.00;99249.45;135244;1275;23419;-80
2023/08/10 03:26:50;;;;;;;30.70;18.40;;;;;;;12.96;100.00;99252.32;135470;1275;22541;-79
2023/08/10 03:29:53;;;;;;;27.50;17.00;;;;;;;13.01;100.00;99253.43;135462;1275;24888;-79
2023/08/10 03:32:55;;;;;;;21.50;16.30;;;;;;;13.05;100.00;99252.61;135214;1275;23507;-80
2023/08/10 03:35:58;;;;;;;30.60;18.00;;;;;;;13.09;100.00;99254.38;135202;1275;22537;-81
2023/08/10 03:39:06;;;;;;;25.20;17.60;;;;;;;13.11;100.00;99255.09;135004;1275;238506;-80
2023/08/10 03:42:09;;;;;;;29.50;16.20;;;;;;;13.44;100.00;99255.70;135503;1275;25201;-82
2023/08/10 03:45:12;;;;;;;27.30;12.20;;;;;;;15.01;100.00;99256.20;135938;1275;22534;-83
2023/08/10 03:48:15;;;;;;;25.70;17.50;;;;;;;16.03;100.00;99256.11;135973;1275;25005;-81
2023/08/10 03:51:17;;;;;;;22.90;14.20;;;;;;;17.41;100.00;99251.81;135762;1266;24214;-81
2023/08/10 03:54:20;;;;;;;15.60;13.20;;;;;;;18.17;100.00;99260.21;135947;1275;22637;-82
2023/08/10 03:57:23;;;;;;;22.40;15.20;;;;;;;18.43;100.00;99267.65;135956;1275;22560;-81
2023/08/10 04:00:26;;;;;;;15.80;12.70;;;;;;;18.52;100.00;99273.35;135774;1275;22622;-82
2023/08/10 04:03:28;;;;;;;20.70;13.60;;;;;;;18.65;100.00;99274.08;135817;1274;22530;-81
2023/08/10 04:06:31;;;;;;;18.60;13.50;;;;;;;18.61;100.00;99279.25;135791;1275;23311;-83
2023/08/10 04:09:33;;;;;;;19.50;13.10;;;;;;;18.67;100.00;99281.98;136020;1275;22561;-81
2023/08/10 04:12:36;;;;;;;21.30;15.10;;;;;;;18.74;100.00;99279.27;136216;1275;22751;-81
2023/08/10 04:15:38;;;;;;;54.50;15.90;;;;;;;18.81;100.00;99280.73;136473;1275;22638;-81
2023/08/10 04:18:41;;;;;;;23.60;13.70;;;;;;;18.81;100.00;99280.56;136370;1275;23091;-82
2023/08/10 04:21:43;;;;;;;17.40;13.20;;;;;;;18.73;100.00;99280.67;136383;1275;22554;-81
2023/08/10 04:24:46;;;;;;;16.20;12.90;;;;;;;18.82;100.00;99280.02;135889;1275;24759;-81
2023/08/10 04:27:48;;;;;;;15.70;13.60;;;;;;;18.94;100.00;99277.55;136089;1275;23350;-84
2023/08/10 04:30:52;;;;;;;20.30;14.30;;;;;;;19.09;100.00;99277.70;136053;1274;22571;-83
2023/08/10 04:34:15;;;;;;;23.20;15.40;;;;;;;19.17;100.00;99282.86;136216;1274;22585;-83
2023/08/10 04:37:18;;;;;;;27.80;16.80;;;;;;;19.10;100.00;99286.85;136691;1274;22539;-81
2023/08/10 04:40:20;;;;;;;22.30;16.60;;;;;;;18.89;100.00;99284.50;137054;1274;23065;-79
2023/08/10 04:43:23;;;;;;;20.30;12.20;;;;;;;18.87;100.00;99284.89;136867;1274;22638;-82
2023/08/10 04:46:26;;;;;;;23.20;13.00;;;;;;;18.68;100.00;99285.85;136892;1274;24335;-82
2023/08/10 04:49:28;;;;;;;18.00;14.20;;;;;;;18.63;100.00;99287.86;136400;1274;22573;-82
2023/08/10 04:52:31;;;;;;;22.00;15.00;;;;;;;18.51;100.00;99291.34;136363;1274;22548;-83
2023/08/10 04:55:34;;;;;;;20.50;16.30;;;;;;;17.48;100.00;99297.15;136482;1267;22543;-83
2023/08/10 04:58:37;;;;;;;24.80;18.90;;;;;;;16.78;100.00;99297.13;136267;1274;22654;-84
2023/08/10 05:01:39;;;;;;;31.40;20.60;;;;;;;16.93;100.00;99297.20;136149;1275;22558;-84
2023/08/10 05:04:42;;;;;;;50.30;23.20;;;;;;;16.94;100.00;99298.08;136213;1274;22967;-83
2023/08/10 05:07:45;;;;;;;33.20;18.60;;;;;;;17.10;100.00;99300.60;136607;1274;22691;-83
2023/08/10 05:10:47;;;;;;;30.70;16.20;;;;;;;17.15;100.00;99302.15;136168;1274;22693;-81
2023/08/10 05:13:50;;;;;;;103.20;65.80;;;;;;;17.49;100.00;99304.02;136385;1273;22514;-81
2023/08/10 05:16:52;;;;;;;112.60;65.80;;;;;;;18.01;100.00;99306.35;136334;1274;22969;-83
2023/08/10 05:19:55;;;;;;;42.80;29.80;;;;;;;18.11;100.00;99314.35;136262;1274;22548;-82
2023/08/10 05:22:57;;;;;;;18.00;12.80;;;;;;;18.17;100.00;99319.56;136008;1275;22573;-80
2023/08/10 05:26:00;;;;;;;23.10;15.20;;;;;;;18.07;100.00;99323.02;135966;1274;24966;-82
2023/08/10 05:29:03;;;;;;;18.30;14.30;;;;;;;17.44;100.00;99327.11;136005;1274;22570;-81
2023/08/10 05:32:12;;;;;;;24.10;15.70;;;;;;;17.47;100.00;99328.48;135833;1274;22590;-82
2023/08/10 05:35:15;;;;;;;21.10;14.00;;;;;;;17.21;100.00;99330.23;135902;1274;22523;-82
2023/08/10 05:38:18;;;;;;;23.40;15.60;;;;;;;17.02;100.00;99335.11;135999;1275;22628;-81
2023/08/10 05:41:20;;;;;;;41.10;25.00;;;;;;;16.33;100.00;99345.93;136069;1275;22895;-81
2023/08/10 05:44:23;;;;;;;88.90;46.50;;;;;;;15.99;100.00;99350.41;135992;1273;22620;-77
2023/08/10 05:47:25;;;;;;;20.40;12.90;;;;;;;15.90;100.00;99351.84;134988;1275;22561;-80
2023/08/10 05:50:28;;;;;;;18.60;12.10;;;;;;;15.41;100.00;99347.94;136129;1275;23106;-80
2023/08/10 05:53:31;;;;;;;21.10;13.10;;;;;;;15.15;100.00;99346.33;136245;1274;22518;-81
2023/08/10 05:56:33;;;;;;;23.40;13.40;;;;;;;15.03;100.00;99346.48;136297;1275;22637;-82
2023/08/10 05:59:35;;;;;;;13.60;10.10;;;;;;;15.33;100.00;99351.27;136196;1274;22524;-84
2023/08/10 06:02:38;;;;;;;11.10;10.00;;;;;;;16.00;100.00;99354.80;135842;1275;22617;-84
2023/08/10 06:05:42;;;;;;;13.60;10.40;;;;;;;16.17;100.00;99360.38;135903;1275;22579;-82
2023/08/10 06:08:45;;;;;;;74.80;46.30;;;;;;;16.52;100.00;99358.36;135975;1272;24804;-82
2023/08/10 06:11:51;;;;;;;13.10;11.20;;;;;;;17.02;100.00;99367.48;136329;1274;26951;-83
2023/08/10 06:14:54;;;;;;;11.60;10.30;;;;;;;16.94;100.00;99373.84;136388;1275;22665;-84
2023/08/10 06:17:57;;;;;;;11.50;10.30;;;;;;;16.75;100.00;99374.64;136332;1275;22717;-82
2023/08/10 06:21:00;;;;;;;11.50;10.40;;;;;;;16.61;100.00;99378.55;136520;1275;22557;-78
2023/08/10 06:24:06;;;;;;;13.80;10.40;;;;;;;16.16;100.00;99380.58;134872;1275;22726;-80
2023/08/10 06:27:09;;;;;;;12.10;10.90;;;;;;;15.82;100.00;99380.63;134930;1275;23031;-80
2023/08/10 06:30:14;;;;;;;13.30;11.10;;;;;;;15.90;100.00;99381.33;134873;1275;25207;-81
2023/08/10 06:33:16;;;;;;;10.90;9.90;;;;;;;16.03;100.00;99380.08;135009;1275;22586;-80
2023/08/10 06:36:19;;;;;;;11.10;9.90;;;;;;;15.90;100.00;99384.48;136161;1275;22564;-79
2023/08/10 06:39:21;;;;;;;9.40;8.50;;;;;;;15.89;100.00;99389.74;136069;1275;22535;-80
2023/08/10 06:42:24;;;;;;;8.80;8.00;;;;;;;15.98;100.00;99389.56;136031;1275;22541;-83
2023/08/10 06:45:27;;;;;;;10.10;9.20;;;;;;;16.09;100.00;99388.85;135191;1275;22630;-82
2023/08/10 06:48:29;;;;;;;10.20;9.00;;;;;;;16.01;100.00;99395.88;136006;1275;22554;-81
2023/08/10 06:51:32;;;;;;;10.70;9.60;;;;;;;15.98;100.00;99402.02;136136;1275;22555;-81
2023/08/10 06:54:35;;;;;;;13.10;10.50;;;;;;;15.89;100.00;99403.61;136393;1275;22547;-82
2023/08/10 06:57:37;;;;;;;13.90;10.30;;;;;;;16.00;100.00;99401.84;136207;1252;22566;-82
2023/08/10 07:00:40;;;;;;;11.50;10.30;;;;;;;16.26;100.00;99400.39;135103;1275;22536;-80
2023/08/10 07:03:43;;;;;;;11.20;10.00;;;;;;;16.50;100.00;99404.58;136312;1275;22587;-81
2023/08/10 07:06:46;;;;;;;14.50;9.30;;;;;;;16.75;100.00;99404.86;136147;1275;25997;-82
2023/08/10 07:09:49;;;;;;;13.60;8.30;;;;;;;16.97;100.00;99399.49;136316;1275;22127;-79
2023/08/10 07:12:51;;;;;;;24.30;9.50;;;;;;;17.29;100.00;99405.66;134892;1275;26011;-82
2023/08/10 07:15:54;;;;;;;9.70;8.80;;;;;;;17.36;100.00;99405.80;136435;1275;22607;-81
2023/08/10 07:18:56;;;;;;;10.70;9.00;;;;;;;17.35;100.00;99410.73;136419;1275;22626;-82
2023/08/10 07:21:59;;;;;;;10.10;9.00;;;;;;;17.36;100.00;99410.02;136445;1275;22653;-80
2023/08/10 07:25:05;;;;;;;10.60;8.00;;;;;;;17.53;100.00;99410.80;134855;1275;22905;-80
2023/08/10 07:28:08;;;;;;;9.00;8.20;;;;;;;17.81;100.00;99410.61;136224;1275;22576;-80
2023/08/10 07:31:10;;;;;;;9.30;8.40;;;;;;;17.97;100.00;99407.65;134863;1275;22556;-79
2023/08/10 07:34:13;;;;;;;7.90;7.10;;;;;;;18.17;100.00;99412.05;135090;1275;22934;-81
2023/08/10 07:37:16;;;;;;;9.10;8.30;;;;;;;18.49;100.00;99413.32;136125;1275;22562;-81
2023/08/10 07:40:19;;;;;;;9.50;8.30;;;;;;;18.72;100.00;99413.96;136291;1275;23144;-82
2023/08/10 07:43:21;;;;;;;22.00;7.40;;;;;;;18.94;100.00;99411.94;136256;1274;22573;-82
2023/08/10 07:46:24;;;;;;;15.10;9.30;;;;;;;19.32;100.00;99411.27;136249;1275;22625;-83
2023/08/10 07:49:27;;;;;;;13.00;8.50;;;;;;;19.88;100.00;99407.95;136188;1275;22586;-82
2023/08/10 07:52:30;;;;;;;9.10;7.60;;;;;;;20.33;100.00;99409.48;136260;1275;22584;-83
2023/08/10 07:55:32;;;;;;;10.80;9.70;;;;;;;20.43;100.00;99407.19;136357;1275;22569;-83
2023/08/10 07:58:35;;;;;;;10.10;9.10;;;;;;;20.37;100.00;99403.39;136276;1275;22560;-82
2023/08/10 08:01:38;;;;;;;66.10;14.60;;;;;;;20.43;100.00;99399.23;136357;1275;23669;-81
2023/08/10 08:04:40;;;;;;;14.40;8.70;;;;;;;20.40;100.00;99404.95;136389;1275;22642;-83
2023/08/10 08:07:43;;;;;;;8.40;7.50;;;;;;;20.18;100.00;99397.55;136258;1274;23114;-80
2023/08/10 08:10:45;;;;;;;8.00;7.20;;;;;;;20.05;100.00;99401.66;136062;1274;22532;-81
2023/08/10 08:13:48;;;;;;;161.40;18.10;;;;;;;19.96;100.00;99404.30;135939;1274;22537;-82
2023/08/10 08:16:50;;;;;;;8.50;6.80;;;;;;;19.78;100.00;99407.40;135096;1274;22570;-82
2023/08/10 08:19:55;;;;;;;9.10;6.90;;;;;;;19.65;100.00;99407.96;136205;1274;22657;-81
2023/08/10 08:22:58;;;;;;;13.20;11.80;;;;;;;20.02;100.00;99404.36;136130;1263;22551;-82
2023/08/10 08:26:02;;;;;;;7.20;6.10;;;;;;;20.38;100.00;99398.44;136124;1274;22567;-82
2023/08/10 08:29:04;;;;;;;8.10;6.50;;;;;;;20.70;100.00;99394.99;136248;1274;22111;-80
2023/08/10 08:32:07;;;;;;;7.10;6.50;;;;;;;20.79;100.00;99397.81;134966;1271;22531;-81
2023/08/10 08:35:10;;;;;;;7.00;5.80;;;;;;;20.89;100.00;99401.50;134996;1274;22581;-79
2023/08/10 08:38:17;;;;;;;7.70;6.20;;;;;;;21.07;100.00;99407.17;136070;1275;22905;-81
2023/08/10 08:41:20;;;;;;;5.10;4.70;;;;;;;21.14;100.00;99401.15;136180;1274;22572;-82
2023/08/10 08:44:22;;;;;;;5.10;4.60;;;;;;;21.00;100.00;99402.35;136137;1274;22567;-84
2023/08/10 08:47:25;;;;;;;6.10;4.80;;;;;;;20.89;100.00;99402.23;136242;1275;22572;-80
2023/08/10 08:50:27;;;;;;;6.70;4.30;;;;;;;21.11;100.00;99402.27;136369;1274;22485;-83
2023/08/10 08:53:31;;;;;;;399.20;36.30;;;;;;;21.45;100.00;99397.65;136343;1274;22828;-83
2023/08/10 08:56:35;;;;;;;27.20;6.70;;;;;;;22.01;100.00;99398.08;136014;1274;22585;-82
2023/08/10 08:59:37;;;;;;;15.90;4.10;;;;;;;22.60;77.14;99394.02;136225;1274;23161;-82
2023/08/10 09:02:40;;;;;;;113.30;89.10;;;;;;;23.36;59.64;99397.34;136674;1274;25591;-82
2023/08/10 09:05:42;;;;;;;17.10;4.10;;;;;;;24.09;58.34;99392.14;136608;1274;22651;-80
2023/08/10 09:08:45;;;;;;;16.30;3.80;;;;;;;24.56;55.90;99390.52;136512;1275;22617;-83
2023/08/10 09:11:50;;;;;;;3.00;2.80;;;;;;;24.70;53.66;99392.16;136481;1274;22527;-80
2023/08/10 09:14:52;;;;;;;4.90;3.30;;;;;;;24.51;52.50;99396.02;136330;1274;22626;-80
2023/08/10 09:17:55;;;;;;;2.90;2.50;;;;;;;23.80;51.79;99398.80;136249;1274;22569;-80
2023/08/10 09:20:57;;;;;;;3.30;3.00;;;;;;;23.30;52.11;99399.09;136328;1274;25461;-80
2023/08/10 09:24:00;;;;;;;14.80;3.50;;;;;;;22.98;52.80;99398.85;135851;1274;22597;-81
2023/08/10 09:27:02;;;;;;;5.50;2.60;;;;;;;22.75;54.32;99396.64;136502;1274;22592;-82
2023/08/10 09:30:05;;;;;;;335.90;24.40;;;;;;;22.80;54.10;99399.50;136358;1274;22542;-80
2023/08/10 09:33:08;;;;;;;6.80;3.30;;;;;;;23.36;53.78;99393.41;136480;1274;22593;-80
2023/08/10 09:36:11;;;;;;;5.20;2.60;;;;;;;23.66;51.38;99397.48;136116;1275;22572;-82
2023/08/10 09:39:13;;;;;;;8.90;3.10;;;;;;;23.81;50.92;99397.52;136190;1274;22564;-83
2023/08/10 09:42:16;;;;;;;12.80;3.00;;;;;;;23.94;51.78;99397.80;136142;1275;22627;-82
2023/08/10 09:45:19;;;;;;;5.70;2.00;;;;;;;24.14;51.67;99393.02;136192;1274;25259;-80
2023/08/10 09:48:22;;;;;;;2.80;2.30;;;;;;;23.99;48.78;99398.33;136252;1274;25397;-85
2023/08/10 09:51:24;;;;;;;2.90;1.80;;;;;;;24.00;48.85;99396.88;136236;1274;25397;-83
2023/08/10 09:54:27;;;;;;;2.40;2.10;;;;;;;24.10;48.27;99397.26;136921;1271;22585;-81
2023/08/10 09:57:30;;;;;;;4.10;1.90;;;;;;;23.97;46.32;99395.73;136851;1274;22546;-83
2023/08/10 10:00:38;;;;;;;10.70;3.50;;;;;;;23.94;47.05;99392.48;136924;1274;22556;-81
2023/08/10 10:03:42;;;;;;;16.20;3.00;;;;;;;24.11;47.63;99388.30;136533;1261;22528;-80
2023/08/10 10:06:50;;;;;;;3.50;2.30;;;;;;;24.41;46.68;99395.17;136505;1274;22607;-83
2023/08/10 10:09:58;;;;;;;4.40;2.50;;;;;;;24.35;46.52;99392.70;136266;1274;26503;-80
2023/08/10 10:13:00;;;;;;;1.80;1.70;;;;;;;24.21;46.29;99396.52;136266;1274;22578;-84
2023/08/10 10:16:05;;;;;;;2.50;2.00;;;;;;;23.56;45.13;99394.95;136219;1274;22633;-82
2023/08/10 10:19:08;;;;;;;3.40;2.30;;;;;;;22.80;45.70;99388.88;135962;1274;24148;-81
2023/08/10 10:22:11;;;;;;;2.10;1.80;;;;;;;22.75;46.75;99383.00;136002;1274;22558;-80
2023/08/10 10:25:15;;;;;;;;;;;;;;;23.09;45.90;99384.85;136332;1274;22545;-81
2023/08/10 10:28:19;;;;;;;3.70;1.60;;;;;;;23.19;44.52;99383.80;136186;1274;22617;-80
2023/08/10 10:31:23;;;;;;;2.40;1.60;;;;;;;23.24;44.63;99376.93;136064;1274;23185;-83
2023/08/10 10:34:26;;;;;;;5.80;2.00;;;;;;;23.45;42.95;99377.00;136152;1266;22592;-82
2023/08/10 10:37:28;;;;;;;3.90;2.10;;;;;;;23.51;43.03;99373.44;136233;1275;22486;-82
2023/08/10 10:40:32;;;;;;;1.90;1.80;;;;;;;23.78;41.95;99375.40;136204;1275;22549;-82
2023/08/10 10:43:34;;;;;;;2.60;1.90;;;;;;;23.83;43.42;99370.96;136327;1275;22553;-80
2023/08/10 10:46:37;;;;;;;5.50;2.30;;;;;;;24.26;43.40;99366.86;135058;1275;22660;-84
2023/08/10 10:49:41;;;;;;;;;;;;;;;24.63;42.78;99368.73;136229;1275;22479;-83
2023/08/10 10:52:45;;;;;;;;;;;;;;;24.71;42.74;99365.95;136129;1275;22591;-82
2023/08/10 10:55:48;;;;;;;2.60;1.90;;;;;;;24.41;42.22;99362.79;136552;1275;22566;-82
2023/08/10 10:58:51;;;;;;;14.40;2.60;;;;;;;24.20;42.39;99363.29;136384;1275;22672;-82
2023/08/10 11:01:54;;;;;;;;;;;;;;;24.20;42.68;99364.02;136015;1275;22567;-83
2023/08/10 11:04:57;;;;;;;3.20;1.90;;;;;;;24.27;42.93;99361.30;136206;1275;22575;-82
2023/08/10 11:08:03;;;;;;;16.20;2.90;;;;;;;24.03;42.53;99360.84;136452;1275;22536;-80
2023/08/10 11:11:05;;;;;;;3.80;1.90;;;;;;;23.77;41.85;99361.93;135153;1275;22593;-84
2023/08/10 11:14:08;;;;;;;2.90;1.80;;;;;;;23.54;42.14;99359.15;136213;1275;22548;-81
2023/08/10 11:17:10;;;;;;;2.40;1.80;;;;;;;23.63;41.92;99357.59;135073;1275;22511;-81
2023/08/10 11:20:17;;;;;;;1.50;1.40;;;;;;;24.00;41.70;99355.45;135126;1275;22570;-79
2023/08/10 11:23:19;;;;;;;;;;;;;;;24.28;40.42;99358.81;135140;1271;22543;-81
2023/08/10 11:26:22;;;;;;;4.30;3.30;;;;;;;24.46;40.76;99359.23;134767;1271;22597;-81
2023/08/10 11:29:24;;;;;;;5.60;2.10;;;;;;;24.92;41.05;99356.43;135101;1275;22546;-82
2023/08/10 11:32:27;;;;;;;2.50;1.90;;;;;;;25.04;39.49;99356.69;136129;1275;25291;-83
2023/08/10 11:35:30;;;;;;;3.60;1.90;;;;;;;25.07;39.82;99352.85;136196;1275;22519;-82
2023/08/10 11:38:40;;;;;;;2.20;1.70;;;;;;;25.34;39.49;99356.96;136130;1275;22586;-83
2023/08/10 11:41:43;;;;;;;6.90;1.90;;;;;;;25.46;39.39;99357.39;136161;1274;22550;-82
2023/08/10 11:44:48;;;;;;;5.20;1.80;;;;;;;25.47;39.03;99354.13;136192;1271;22517;-83
2023/08/10 11:48:07;;;;;;;1.90;1.70;;;;;;;25.09;36.73;99354.73;135848;1274;24405;-83
2023/08/10 11:51:12;;;;;;;2.00;1.70;;;;;;;24.36;38.08;99357.08;135879;1274;22659;-84
2023/08/10 11:54:15;;;;;;;4.20;2.10;;;;;;;23.89;39.25;99354.77;135937;1274;22552;-82
2023/08/10 11:57:17;;;;;;;50.20;4.50;;;;;;;23.78;40.08;99350.02;136080;1274;23201;-82
2023/08/10 12:00:21;;;;;;;5.40;2.00;;;;;;;23.99;38.02;99355.14;136103;1274;22590;-84
2023/08/10 12:03:26;;;;;;;1.70;1.60;;;;;;;24.10;37.76;99353.33;136337;1274;22568;-83
2023/08/10 12:06:29;;;;;;;2.20;1.50;;;;;;;24.30;37.55;99350.52;136232;1274;22552;-82
2023/08/10 12:09:32;;;;;;;2.70;1.50;;;;;;;24.62;36.80;99347.06;136490;1274;23463;-84
2023/08/10 12:12:36;;;;;;;2.10;1.40;;;;;;;24.95;36.55;99341.88;136522;1274;22520;-82
2023/08/10 12:15:38;;;;;;;1.90;1.50;;;;;;;25.24;35.72;99335.99;136552;1274;22672;-79
2023/08/10 12:18:41;;;;;;;11.10;2.20;;;;;;;25.46;34.58;99337.77;136629;1274;22522;-83
2023/08/10 12:21:45;;;;;;;2.20;1.50;;;;;;;25.29;34.27;99335.09;136519;1263;22544;-81
2023/08/10 12:24:49;;;;;;;72.20;6.30;;;;;;;25.14;34.58;99336.38;136671;1274;22868;-82
2023/08/10 12:27:59;;;;;;;2.60;1.80;;;;;;;25.22;34.88;99329.85;136539;1274;22575;-81
2023/08/10 12:31:01;;;;;;;1.40;1.30;;;;;;;25.35;35.15;99328.39;136532;1274;26120;-81
2023/08/10 12:34:08;;;;;;;2.10;1.70;;;;;;;25.36;35.48;99324.63;136830;1274;22548;-86
2023/08/10 12:37:11;;;;;;;1.70;1.60;;;;;;;25.56;35.65;99323.81;136659;1274;22589;-83
2023/08/10 12:40:14;;;;;;;3.80;1.80;;;;;;;25.38;35.72;99320.30;136538;1271;22000;-83
2023/08/10 12:43:17;;;;;;;2.10;1.70;;;;;;;25.04;36.00;99324.48;136445;1274;23214;-81
2023/08/10 12:46:20;;;;;;;1.90;1.50;;;;;;;24.83;36.62;99319.05;136356;1274;22978;-83
2023/08/10 12:49:23;;;;;;;2.20;1.60;;;;;;;24.64;36.47;99322.41;136596;1274;23464;-81
2023/08/10 12:52:25;;;;;;;2.30;1.70;;;;;;;24.50;36.99;99317.81;136411;1268;23101;-82
2023/08/10 12:55:29;;;;;;;3.80;1.90;;;;;;;24.25;36.68;99313.17;136272;1274;22696;-86
2023/08/10 12:58:31;;;;;;;1.80;1.40;;;;;;;23.97;37.15;99310.59;136291;1267;22552;-81
2023/08/10 13:01:35;;;;;;;3.60;1.80;;;;;;;24.14;36.82;99305.53;136296;1274;24198;-83
2023/08/10 13:04:38;;;;;;;7.10;2.20;;;;;;;24.29;36.47;99307.02;136144;1274;26229;-85
2023/08/10 13:07:42;;;;;;;;;;;;;;;24.52;36.52;99312.23;136394;1274;22543;-81
2023/08/10 13:10:44;;;;;;;1.60;1.50;;;;;;;24.70;36.38;99303.89;136599;1274;22602;-81
2023/08/10 13:13:48;;;;;;;3.80;1.60;;;;;;;24.94;36.33;99304.19;136374;1274;22506;-83
2023/08/10 13:16:51;;;;;;;6.70;1.90;;;;;;;24.93;34.97;99307.80;136478;1274;22556;-83
2023/08/10 13:19:58;;;;;;;1.70;1.30;;;;;;;24.85;34.52;99307.05;136561;1274;22850;-82
2023/08/10 13:23:01;;;;;;;3.00;1.40;;;;;;;24.75;32.33;99303.66;136426;1268;22661;-82
2023/08/10 13:26:04;;;;;;;1.70;1.60;;;;;;;24.71;32.88;99298.46;136326;1274;22516;-81
2023/08/10 13:29:07;;;;;;;1.60;1.20;;;;;;;24.87;33.39;99297.70;136410;1274;22665;-82
2023/08/10 13:32:10;;;;;;;1.60;1.40;;;;;;;25.05;33.03;99297.92;136433;1274;22930;-78
2023/08/10 13:35:13;;;;;;;1.40;1.20;;;;;;;25.09;34.32;99296.13;136481;1268;22177;-84
2023/08/10 13:38:15;;;;;;;2.10;1.40;;;;;;;25.16;33.22;99298.38;136384;1274;22499;-84
2023/08/10 13:41:18;;;;;;;1.50;1.40;;;;;;;25.18;32.09;99302.23;136054;1274;22559;-87
2023/08/10 13:44:20;;;;;;;2.10;1.60;;;;;;;25.09;32.63;99297.04;135801;1274;22542;-84
2023/08/10 13:47:23;;;;;;;2.80;1.70;;;;;;;25.13;32.80;99294.20;135862;1274;25909;-85
2023/08/10 13:50:25;;;;;;;4.60;1.50;;;;;;;25.26;32.22;99294.95;135912;1274;22642;-82
2023/08/10 13:53:31;;;;;;;2.00;1.50;;;;;;;25.28;31.86;99294.69;135926;1271;22522;-82
2023/08/10 13:56:52;;;;;;;3.30;1.50;;;;;;;25.37;31.76;99290.91;136712;1267;22551;-82